• Join FlightAware (Why Join?)
  • Login
  • US Flag 
03:02PM EDT


 

Airport Tracker/Info


-or-


 

Live Flight TrackerFlight Track Log ✈ CSZ9593 ✈ 31-Aug-2014 ✈ ZGNN / NNG - ZGSZ / SZX

Flight Track Log - Related Links

Times and Time Zones

All times are in EDT time to prevent confusion due to time zone crossing. See the CSZ9593 flight status page for this flight to view local times or setup timezone preferences in your user account.

Time Position Orientation Groundspeed Altitude Reporting Facility
EDT Latitude Longitude Course Direction KTS MPH feet Rate Location/Type
08:39PM 22.6172 108.5824 89° East  Level Estimated
08:40PM 22.6192 108.6849 89° East  Level Estimated
08:41PM 22.6213 108.7874 89° East  Level Estimated
08:42PM 22.6232 108.8899 89° East  Level Estimated
08:43PM 22.6251 108.9924 89° East  Level Estimated
08:44PM 22.6269 109.0949 89° East  Level Estimated
08:45PM 22.6286 109.1974 89° East  Level Estimated
08:46PM 22.6303 109.2999 89° East  Level Estimated
08:47PM 22.6319 109.4024 89° East  Level Estimated
08:48PM 22.6334 109.5049 89° East  Level Estimated
08:49PM 22.6349 109.6074 89° East  Level Estimated
08:50PM 22.6363 109.7100 89° East  Level Estimated
08:51PM 22.6377 109.8125 89° East  Level Estimated
08:52PM 22.6390 109.9150 89° East  Level Estimated
08:53PM 22.6402 110.0175 89° East  Level Estimated
08:54PM 22.6413 110.1200 89° East  Level Estimated
08:55PM 22.6424 110.2226 89° East  Level Estimated
08:56PM 22.6435 110.3251 89° East  Level Estimated
08:57PM 22.6444 110.4276 89° East  Level Estimated
08:58PM 22.6453 110.5302 89° East  Level Estimated
08:59PM 22.6461 110.6327 89° East  Level Estimated
09:00PM 22.6469 110.7352 90° East  Level Estimated
09:01PM 22.6476 110.8378 90° East  Level Estimated
09:02PM 22.6482 110.9403 90° East  Level Estimated
09:03PM 22.6488 111.0428 90° East  Level Estimated
09:04PM 22.6493 111.1454 90° East  Level Estimated
09:05PM 22.6497 111.2479 90° East  Level Estimated
09:06PM 22.6501 111.3505 90° East  Level Estimated
09:07PM 22.6504 111.4530 90° East  Level Estimated
09:08PM 22.6507 111.5555 90° East  Level Estimated
09:09PM 22.6508 111.6581 90° East  Level Estimated
09:10PM 22.6509 111.7606 90° East  Level Estimated
09:11PM 22.6510 111.8632 90° East  Level Estimated
09:12PM 22.6510 111.9657 90° East  Level Estimated
09:13PM 22.6509 112.0682 90° East  Level Estimated
09:14PM 22.6507 112.1708 90° East  Level Estimated
09:15PM 22.6505 112.2733 90° East  Level Estimated
09:16PM 22.6502 112.3759 90° East  Level Estimated
09:17PM 22.6499 112.4784 90° East  Level Estimated
09:18PM 22.6495 112.5809 90° East  Level Estimated
09:19PM 22.6490 112.6835 90° East  Level Estimated
09:20PM 22.6485 112.7860 90° East  Level Estimated
09:21PM 22.6479 112.8886 90° East  Level Estimated
09:22PM 22.6472 112.9911 90° East  Level Estimated
09:23PM 22.6465 113.0936 90° East  Level Estimated
09:24PM 22.6457 113.1962 90° East  Level Estimated
09:25PM 22.6448 113.2987 91° East  Level Estimated
09:26PM 22.6439 113.4012 91° East  Level Estimated
09:27PM 22.6429 113.5038 91° East  Level Estimated
09:28PM 22.6418 113.6063 91° East  Level Estimated
09:29PM 22.6407 113.7088 91° East  Level Estimated
09:30PM 22.6395 113.8113 91° East  Level Estimated
09:31PM 22.6395 113.8124 91° East  Level Estimated
09:32PM 22.6395 113.8124 North  Level Estimated
09:33PM 22.6395 113.8124 North  Level Estimated
09:34PM 22.6395 113.8124 North  Level Estimated
09:35PM 22.6395 113.8124 North  Level Estimated
09:36PM 22.6395 113.8124 North  Level Estimated
09:37PM 22.6395 113.8124 North  Level Estimated
09:38PM 22.6395 113.8124 North  Level Estimated